sensor_id;sensor_type;location;lat;lon;timestamp;pressure;altitude;pressure_sealevel;temperature;humidity
43155;BME280;34212;51.018;13.586;2022-12-07T00:04:43;97586.94;;;3.00;93.10
43155;BME280;34212;51.018;13.586;2022-12-07T00:09:45;97580.56;;;3.03;93.53
43155;BME280;34212;51.018;13.586;2022-12-07T00:14:46;97577.09;;;3.03;92.55
43155;BME280;34212;51.018;13.586;2022-12-07T00:19:48;97578.22;;;3.00;92.85
43155;BME280;34212;51.018;13.586;2022-12-07T00:24:49;97573.50;;;3.04;93.32
43155;BME280;34212;51.018;13.586;2022-12-07T00:29:51;97565.72;;;3.02;92.96
43155;BME280;34212;51.018;13.586;2022-12-07T00:34:52;97565.03;;;3.10;93.04
43155;BME280;34212;51.018;13.586;2022-12-07T00:39:53;97561.03;;;3.15;92.69
43155;BME280;34212;51.018;13.586;2022-12-07T00:44:55;97557.28;;;3.18;92.89
43155;BME280;34212;51.018;13.586;2022-12-07T00:49:56;97549.47;;;3.26;92.27
43155;BME280;34212;51.018;13.586;2022-12-07T00:54:58;97543.09;;;3.29;92.41
43155;BME280;34212;51.018;13.586;2022-12-07T00:59:59;97551.72;;;3.31;92.33
43155;BME280;34212;51.018;13.586;2022-12-07T01:05:02;97543.09;;;3.29;92.64
43155;BME280;34212;51.018;13.586;2022-12-07T01:10:04;97538.13;;;3.26;92.08
43155;BME280;34212;51.018;13.586;2022-12-07T01:15:06;97544.47;;;3.33;92.91
43155;BME280;34212;51.018;13.586;2022-12-07T01:20:09;97543.63;;;3.42;92.52
43155;BME280;34212;51.018;13.586;2022-12-07T01:25:11;97542.69;;;3.43;91.92
43155;BME280;34212;51.018;13.586;2022-12-07T01:30:13;97545.88;;;3.37;92.00
43155;BME280;34212;51.018;13.586;2022-12-07T01:35:14;97542.25;;;3.38;92.16
43155;BME280;34212;51.018;13.586;2022-12-07T01:40:16;97543.34;;;3.45;92.92
43155;BME280;34212;51.018;13.586;2022-12-07T01:50:19;97552.09;;;3.55;91.76
43155;BME280;34212;51.018;13.586;2022-12-07T01:55:23;97542.53;;;3.44;91.36
43155;BME280;34212;51.018;13.586;2022-12-07T02:00:25;97555.84;;;3.33;91.11
43155;BME280;34212;51.018;13.586;2022-12-07T02:05:27;97556.13;;;3.30;91.83
43155;BME280;34212;51.018;13.586;2022-12-07T02:10:31;97545.88;;;3.17;91.25
43155;BME280;34212;51.018;13.586;2022-12-07T02:20:47;97532.31;;;3.12;91.47
43155;BME280;34212;51.018;13.586;2022-12-07T02:31:15;97525.50;;;3.19;91.57
43155;BME280;34212;51.018;13.586;2022-12-07T02:41:33;97508.84;;;3.29;91.68
43155;BME280;34212;51.018;13.586;2022-12-07T02:46:41;97500.50;;;3.33;90.97
43155;BME280;34212;51.018;13.586;2022-12-07T02:51:44;97495.09;;;3.35;91.08
43155;BME280;34212;51.018;13.586;2022-12-07T03:02:33;97482.91;;;3.34;90.98
43155;BME280;34212;51.018;13.586;2022-12-07T03:08:23;97484.84;;;3.32;90.70
43155;BME280;34212;51.018;13.586;2022-12-07T03:24:00;97472.94;;;3.28;90.33
43155;BME280;34212;51.018;13.586;2022-12-07T03:29:17;97470.16;;;3.19;89.63
43155;BME280;34212;51.018;13.586;2022-12-07T03:34:29;97466.72;;;3.09;90.08
43155;BME280;34212;51.018;13.586;2022-12-07T03:40:37;97463.25;;;2.99;88.98
43155;BME280;34212;51.018;13.586;2022-12-07T03:45:12;97461.47;;;2.90;90.24
43155;BME280;34212;51.018;13.586;2022-12-07T03:50:44;97455.22;;;2.91;89.72
43155;BME280;34212;51.018;13.586;2022-12-07T03:55:50;97452.06;;;2.87;89.83
43155;BME280;34212;51.018;13.586;2022-12-07T04:00:53;97451.09;;;2.78;90.07
43155;BME280;34212;51.018;13.586;2022-12-07T04:05:55;97442.75;;;2.73;90.96
43155;BME280;34212;51.018;13.586;2022-12-07T04:10:57;97435.56;;;2.75;90.76
43155;BME280;34212;51.018;13.586;2022-12-07T04:15:58;97436.81;;;2.71;90.22
43155;BME280;34212;51.018;13.586;2022-12-07T04:21:00;97423.34;;;2.65;89.45
43155;BME280;34212;51.018;13.586;2022-12-07T04:26:01;97435.97;;;2.61;89.57
43155;BME280;34212;51.018;13.586;2022-12-07T04:31:03;97425.03;;;2.56;89.45
43155;BME280;34212;51.018;13.586;2022-12-07T04:36:05;97415.19;;;2.58;89.50
43155;BME280;34212;51.018;13.586;2022-12-07T04:41:07;97402.88;;;2.59;89.84
43155;BME280;34212;51.018;13.586;2022-12-07T04:46:09;97387.50;;;2.54;89.22
43155;BME280;34212;51.018;13.586;2022-12-07T04:51:10;97392.22;;;2.50;89.36
43155;BME280;34212;51.018;13.586;2022-12-07T04:56:12;97389.69;;;2.49;89.45
43155;BME280;34212;51.018;13.586;2022-12-07T05:01:15;97389.03;;;2.47;89.52
43155;BME280;34212;51.018;13.586;2022-12-07T05:06:17;97378.50;;;2.47;89.18
43155;BME280;34212;51.018;13.586;2022-12-07T05:11:19;97374.06;;;2.47;89.50
43155;BME280;34212;51.018;13.586;2022-12-07T05:16:40;97381.53;;;2.52;90.17
43155;BME280;34212;51.018;13.586;2022-12-07T05:21:42;97377.66;;;2.56;90.27
43155;BME280;34212;51.018;13.586;2022-12-07T05:26:44;97368.22;;;2.63;90.44
43155;BME280;34212;51.018;13.586;2022-12-07T05:31:46;97366.56;;;2.62;90.79
43155;BME280;34212;51.018;13.586;2022-12-07T05:36:47;97362.41;;;2.60;90.17
43155;BME280;34212;51.018;13.586;2022-12-07T05:41:49;97361.97;;;2.64;90.84
43155;BME280;34212;51.018;13.586;2022-12-07T05:47:10;97351.16;;;2.67;90.69
43155;BME280;34212;51.018;13.586;2022-12-07T05:52:11;97344.66;;;2.71;90.46
43155;BME280;34212;51.018;13.586;2022-12-07T05:57:13;97349.94;;;2.71;91.48
43155;BME280;34212;51.018;13.586;2022-12-07T06:02:16;97347.41;;;2.80;91.86
43155;BME280;34212;51.018;13.586;2022-12-07T06:07:18;97348.63;;;2.85;91.91
43155;BME280;34212;51.018;13.586;2022-12-07T06:12:19;97349.88;;;2.91;92.11
43155;BME280;34212;51.018;13.586;2022-12-07T06:17:36;97343.75;;;3.00;92.63
43155;BME280;34212;51.018;13.586;2022-12-07T06:22:37;97339.25;;;3.10;91.79
43155;BME280;34212;51.018;13.586;2022-12-07T06:27:39;97330.78;;;3.16;92.01
43155;BME280;34212;51.018;13.586;2022-12-07T06:32:40;97338.56;;;3.18;91.05
43155;BME280;34212;51.018;13.586;2022-12-07T06:37:42;97335.34;;;3.14;91.67
43155;BME280;34212;51.018;13.586;2022-12-07T06:42:43;97336.63;;;3.10;91.51
43155;BME280;34212;51.018;13.586;2022-12-07T06:47:45;97344.41;;;3.12;91.75
43155;BME280;34212;51.018;13.586;2022-12-07T06:52:47;97340.63;;;3.14;92.09
43155;BME280;34212;51.018;13.586;2022-12-07T06:57:49;97345.91;;;3.14;91.91
43155;BME280;34212;51.018;13.586;2022-12-07T07:02:50;97343.13;;;3.16;91.49
43155;BME280;34212;51.018;13.586;2022-12-07T07:07:52;97349.81;;;3.10;90.32
43155;BME280;34212;51.018;13.586;2022-12-07T07:13:13;97349.75;;;2.83;88.32
43155;BME280;34212;51.018;13.586;2022-12-07T07:18:14;97348.81;;;2.64;88.49
43155;BME280;34212;51.018;13.586;2022-12-07T07:23:16;97354.63;;;2.58;89.65
43155;BME280;34212;51.018;13.586;2022-12-07T07:28:18;97352.28;;;2.55;90.11
43155;BME280;34212;51.018;13.586;2022-12-07T07:33:19;97363.25;;;2.60;90.64
43155;BME280;34212;51.018;13.586;2022-12-07T07:38:21;97359.88;;;2.68;91.70
43155;BME280;34212;51.018;13.586;2022-12-07T07:43:22;97366.28;;;2.75;92.34
43155;BME280;34212;51.018;13.586;2022-12-07T07:48:24;97372.91;;;2.79;92.32
43155;BME280;34212;51.018;13.586;2022-12-07T07:53:26;97375.41;;;2.81;92.91
43155;BME280;34212;51.018;13.586;2022-12-07T07:58:27;97365.69;;;2.91;93.63
43155;BME280;34212;51.018;13.586;2022-12-07T08:03:29;97369.41;;;2.98;93.13
43155;BME280;34212;51.018;13.586;2022-12-07T08:08:31;97370.63;;;3.04;93.57
43155;BME280;34212;51.018;13.586;2022-12-07T08:13:33;97374.63;;;3.08;93.89
43155;BME280;34212;51.018;13.586;2022-12-07T08:18:39;97376.41;;;3.17;93.51
43155;BME280;34212;51.018;13.586;2022-12-07T08:23:41;97369.72;;;3.22;93.82
43155;BME280;34212;51.018;13.586;2022-12-07T08:28:43;97358.03;;;3.35;93.65
43155;BME280;34212;51.018;13.586;2022-12-07T08:33:46;97354.69;;;3.33;92.99
43155;BME280;34212;51.018;13.586;2022-12-07T08:38:48;97368.28;;;3.38;93.65
43155;BME280;34212;51.018;13.586;2022-12-07T08:44:09;97375.91;;;3.41;93.23
43155;BME280;34212;51.018;13.586;2022-12-07T08:49:13;97366.44;;;3.48;93.66
43155;BME280;34212;51.018;13.586;2022-12-07T08:54:17;97366.53;;;3.56;93.27
43155;BME280;34212;51.018;13.586;2022-12-07T08:59:20;97368.88;;;3.59;93.83
43155;BME280;34212;51.018;13.586;2022-12-07T09:04:22;97368.59;;;3.62;93.24
43155;BME280;34212;51.018;13.586;2022-12-07T09:09:23;97373.66;;;3.74;93.80
43155;BME280;34212;51.018;13.586;2022-12-07T09:14:25;97378.03;;;3.83;93.75
43155;BME280;34212;51.018;13.586;2022-12-07T09:19:26;97366.59;;;3.92;93.99
43155;BME280;34212;51.018;13.586;2022-12-07T09:24:28;97376.25;;;4.01;93.14
43155;BME280;34212;51.018;13.586;2022-12-07T09:29:29;97374.31;;;4.03;92.95
43155;BME280;34212;51.018;13.586;2022-12-07T09:34:31;97377.03;;;3.93;92.64
43155;BME280;34212;51.018;13.586;2022-12-07T09:39:33;97376.19;;;3.93;92.75
43155;BME280;34212;51.018;13.586;2022-12-07T09:44:35;97376.56;;;3.98;92.90
43155;BME280;34212;51.018;13.586;2022-12-07T09:49:36;97375.44;;;4.01;92.33
43155;BME280;34212;51.018;13.586;2022-12-07T09:54:42;97374.72;;;4.08;93.10
43155;BME280;34212;51.018;13.586;2022-12-07T09:59:45;97378.41;;;4.15;93.47
43155;BME280;34212;51.018;13.586;2022-12-07T10:04:46;97362.41;;;4.17;92.29
43155;BME280;34212;51.018;13.586;2022-12-07T10:09:48;97351.94;;;4.25;91.97
43155;BME280;34212;51.018;13.586;2022-12-07T10:15:00;97347.38;;;4.35;93.06
43155;BME280;34212;51.018;13.586;2022-12-07T10:25:19;97345.16;;;4.67;92.29
43155;BME280;34212;51.018;13.586;2022-12-07T10:30:21;97345.66;;;4.70;92.58
43155;BME280;34212;51.018;13.586;2022-12-07T10:35:28;97357.31;;;4.77;92.04
43155;BME280;34212;51.018;13.586;2022-12-07T10:40:36;97334.28;;;4.70;91.76
43155;BME280;34212;51.018;13.586;2022-12-07T10:51:42;97331.91;;;4.58;91.75
43155;BME280;34212;51.018;13.586;2022-12-07T10:57:00;97331.91;;;4.58;92.15
43155;BME280;34212;51.018;13.586;2022-12-07T11:13:01;97331.28;;;4.65;91.55
43155;BME280;34212;51.018;13.586;2022-12-07T11:23:21;97315.69;;;4.53;91.38
43155;BME280;34212;51.018;13.586;2022-12-07T11:28:59;97315.75;;;4.18;88.66
43155;BME280;34212;51.018;13.586;2022-12-07T11:49:40;97297.56;;;4.14;93.32
43155;BME280;34212;51.018;13.586;2022-12-07T11:54:45;97304.72;;;4.22;93.61
43155;BME280;34212;51.018;13.586;2022-12-07T11:59:52;97315.19;;;4.32;93.70
43155;BME280;34212;51.018;13.586;2022-12-07T12:05:01;97302.50;;;4.35;93.92
43155;BME280;34212;51.018;13.586;2022-12-07T12:20:56;97306.09;;;3.90;87.69
43155;BME280;34212;51.018;13.586;2022-12-07T12:26:02;97312.81;;;3.02;86.58
43155;BME280;34212;51.018;13.586;2022-12-07T12:46:38;97302.91;;;2.10;91.88
43155;BME280;34212;51.018;13.586;2022-12-07T13:23:06;97264.78;;;3.36;95.66
43155;BME280;34212;51.018;13.586;2022-12-07T13:28:15;97266.78;;;3.52;95.94
43155;BME280;34212;51.018;13.586;2022-12-07T13:33:18;97270.72;;;3.65;96.67
43155;BME280;34212;51.018;13.586;2022-12-07T13:38:28;97272.31;;;3.76;95.67
43155;BME280;34212;51.018;13.586;2022-12-07T13:43:30;97275.09;;;3.75;95.88
43155;BME280;34212;51.018;13.586;2022-12-07T13:48:43;97275.09;;;3.75;95.69
43155;BME280;34212;51.018;13.586;2022-12-07T13:53:51;97276.75;;;3.76;95.92
43155;BME280;34212;51.018;13.586;2022-12-07T13:58:54;97288.00;;;3.78;95.68
43155;BME280;34212;51.018;13.586;2022-12-07T14:03:55;97288.66;;;3.80;95.32
43155;BME280;34212;51.018;13.586;2022-12-07T14:14:30;97290.25;;;3.90;95.40
43155;BME280;34212;51.018;13.586;2022-12-07T14:19:41;97284.81;;;3.92;95.49
43155;BME280;34212;51.018;13.586;2022-12-07T14:24:49;97282.19;;;3.92;95.01
43155;BME280;34212;51.018;13.586;2022-12-07T14:29:51;97279.19;;;3.87;94.51
43155;BME280;34212;51.018;13.586;2022-12-07T14:35:12;97273.50;;;3.82;94.54
43155;BME280;34212;51.018;13.586;2022-12-07T14:45:22;97266.44;;;3.82;94.18
43155;BME280;34212;51.018;13.586;2022-12-07T14:50:24;97272.16;;;3.78;93.43
43155;BME280;34212;51.018;13.586;2022-12-07T14:55:28;97272.75;;;3.72;93.32
43155;BME280;34212;51.018;13.586;2022-12-07T15:00:29;97279.00;;;3.70;94.13
43155;BME280;34212;51.018;13.586;2022-12-07T15:05:32;97281.50;;;3.72;94.29
43155;BME280;34212;51.018;13.586;2022-12-07T15:10:34;97279.25;;;3.77;94.32
43155;BME280;34212;51.018;13.586;2022-12-07T15:15:39;97282.56;;;3.79;93.22
43155;BME280;34212;51.018;13.586;2022-12-07T15:20:41;97291.06;;;3.73;93.35
43155;BME280;34212;51.018;13.586;2022-12-07T15:25:44;97293.34;;;3.68;93.07
43155;BME280;34212;51.018;13.586;2022-12-07T15:30:45;97285.16;;;3.61;93.84
43155;BME280;34212;51.018;13.586;2022-12-07T15:35:47;97284.28;;;3.53;93.18
43155;BME280;34212;51.018;13.586;2022-12-07T15:40:48;97279.44;;;3.48;93.27
43155;BME280;34212;51.018;13.586;2022-12-07T15:45:50;97284.69;;;3.48;92.92
43155;BME280;34212;51.018;13.586;2022-12-07T15:50:51;97277.31;;;3.52;93.09
43155;BME280;34212;51.018;13.586;2022-12-07T15:55:53;97271.09;;;3.53;93.41
43155;BME280;34212;51.018;13.586;2022-12-07T16:00:54;97286.16;;;3.60;93.06
43155;BME280;34212;51.018;13.586;2022-12-07T16:05:56;97282.41;;;3.63;93.21
43155;BME280;34212;51.018;13.586;2022-12-07T16:10:57;97283.38;;;3.62;92.45
43155;BME280;34212;51.018;13.586;2022-12-07T16:16:06;97296.34;;;3.55;92.01
43155;BME280;34212;51.018;13.586;2022-12-07T16:21:08;97282.06;;;3.48;92.62
43155;BME280;34212;51.018;13.586;2022-12-07T16:26:17;97285.00;;;3.45;92.91
43155;BME280;34212;51.018;13.586;2022-12-07T16:31:22;97280.84;;;3.42;92.37
43155;BME280;34212;51.018;13.586;2022-12-07T16:36:24;97276.44;;;3.43;92.33
43155;BME280;34212;51.018;13.586;2022-12-07T16:41:48;97289.06;;;3.39;91.94
43155;BME280;34212;51.018;13.586;2022-12-07T16:46:49;97291.69;;;3.39;91.94
43155;BME280;34212;51.018;13.586;2022-12-07T16:51:51;97286.97;;;3.43;92.15
43155;BME280;34212;51.018;13.586;2022-12-07T16:57:12;97297.88;;;3.48;92.24
43155;BME280;34212;51.018;13.586;2022-12-07T17:02:45;97301.06;;;3.52;92.92
43155;BME280;34212;51.018;13.586;2022-12-07T17:09:40;97293.06;;;3.61;93.12
43155;BME280;34212;51.018;13.586;2022-12-07T17:15:08;97284.50;;;3.59;92.07
43155;BME280;34212;51.018;13.586;2022-12-07T17:20:36;97295.72;;;3.61;92.53
43155;BME280;34212;51.018;13.586;2022-12-07T17:26:24;97286.03;;;3.62;92.44
43155;BME280;34212;51.018;13.586;2022-12-07T17:31:32;97285.16;;;3.61;92.44
43155;BME280;34212;51.018;13.586;2022-12-07T17:36:34;97282.22;;;3.64;92.61
43155;BME280;34212;51.018;13.586;2022-12-07T17:41:36;97282.94;;;3.66;92.51
43155;BME280;34212;51.018;13.586;2022-12-07T17:46:56;97290.41;;;3.71;92.39
43155;BME280;34212;51.018;13.586;2022-12-07T17:52:03;97290.94;;;3.75;92.56
43155;BME280;34212;51.018;13.586;2022-12-07T17:57:23;97297.84;;;3.76;92.42
43155;BME280;34212;51.018;13.586;2022-12-07T18:02:25;97301.47;;;3.75;92.60
43155;BME280;34212;51.018;13.586;2022-12-07T18:07:26;97311.53;;;3.61;91.75
43155;BME280;34212;51.018;13.586;2022-12-07T18:12:28;97309.13;;;3.50;92.05
43155;BME280;34212;51.018;13.586;2022-12-07T18:17:29;97301.69;;;3.36;91.40
43155;BME280;34212;51.018;13.586;2022-12-07T18:22:31;97308.44;;;3.20;91.68
43155;BME280;34212;51.018;13.586;2022-12-07T18:27:32;97299.06;;;3.08;91.60
43155;BME280;34212;51.018;13.586;2022-12-07T18:32:34;97296.88;;;3.04;91.33
43155;BME280;34212;51.018;13.586;2022-12-07T18:37:35;97308.81;;;2.98;92.25
43155;BME280;34212;51.018;13.586;2022-12-07T18:42:36;97303.78;;;3.05;92.09
43155;BME280;34212;51.018;13.586;2022-12-07T18:47:38;97305.59;;;3.04;91.12
43155;BME280;34212;51.018;13.586;2022-12-07T18:52:39;97307.94;;;3.07;91.37
43155;BME280;34212;51.018;13.586;2022-12-07T18:57:41;97294.22;;;3.04;91.05
43155;BME280;34212;51.018;13.586;2022-12-07T19:02:42;97303.78;;;3.05;90.93
43155;BME280;34212;51.018;13.586;2022-12-07T19:07:44;97308.09;;;3.06;91.05
43155;BME280;34212;51.018;13.586;2022-12-07T19:12:47;97301.41;;;3.11;91.32
43155;BME280;34212;51.018;13.586;2022-12-07T19:17:48;97297.22;;;3.18;92.02
43155;BME280;34212;51.018;13.586;2022-12-07T19:22:50;97289.69;;;3.23;92.38
43155;BME280;34212;51.018;13.586;2022-12-07T19:27:51;97283.84;;;3.30;91.66
43155;BME280;34212;51.018;13.586;2022-12-07T19:32:52;97286.19;;;3.33;92.41
43155;BME280;34212;51.018;13.586;2022-12-07T19:37:54;97279.78;;;3.35;92.01
43155;BME280;34212;51.018;13.586;2022-12-07T19:42:55;97283.13;;;3.37;92.20
43155;BME280;34212;51.018;13.586;2022-12-07T19:47:57;97277.69;;;3.39;92.16
43155;BME280;34212;51.018;13.586;2022-12-07T19:52:58;97285.00;;;3.45;92.23
43155;BME280;34212;51.018;13.586;2022-12-07T19:57:59;97286.69;;;3.46;92.39
43155;BME280;34212;51.018;13.586;2022-12-07T20:03:01;97274.16;;;3.48;92.09
43155;BME280;34212;51.018;13.586;2022-12-07T20:08:03;97279.00;;;3.53;92.57
43155;BME280;34212;51.018;13.586;2022-12-07T20:13:04;97278.72;;;3.56;92.56
43155;BME280;34212;51.018;13.586;2022-12-07T20:18:24;97276.78;;;3.48;92.10
43155;BME280;34212;51.018;13.586;2022-12-07T20:23:27;97265.88;;;3.43;91.53
43155;BME280;34212;51.018;13.586;2022-12-07T20:28:29;97269.25;;;3.35;91.74
43155;BME280;34212;51.018;13.586;2022-12-07T20:33:31;97271.47;;;3.30;91.98
43155;BME280;34212;51.018;13.586;2022-12-07T20:38:32;97276.91;;;3.29;92.04
43155;BME280;34212;51.018;13.586;2022-12-07T20:43:34;97267.50;;;3.26;91.55
43155;BME280;34212;51.018;13.586;2022-12-07T20:48:35;97272.09;;;3.24;91.50
43155;BME280;34212;51.018;13.586;2022-12-07T20:53:37;97261.69;;;3.22;91.98
43155;BME280;34212;51.018;13.586;2022-12-07T20:58:38;97256.28;;;3.24;91.47
43155;BME280;34212;51.018;13.586;2022-12-07T21:03:39;97262.75;;;3.30;91.54
43155;BME280;34212;51.018;13.586;2022-12-07T21:08:49;97263.44;;;3.32;91.07
43155;BME280;34212;51.018;13.586;2022-12-07T21:13:51;97263.44;;;3.32;91.43
43155;BME280;34212;51.018;13.586;2022-12-07T21:18:53;97255.25;;;3.35;92.12
43155;BME280;34212;51.018;13.586;2022-12-07T21:23:55;97264.78;;;3.36;91.59
43155;BME280;34212;51.018;13.586;2022-12-07T21:29:05;97265.78;;;3.35;91.66
43155;BME280;34212;51.018;13.586;2022-12-07T21:34:06;97263.84;;;3.37;91.40
43155;BME280;34212;51.018;13.586;2022-12-07T21:39:08;97249.66;;;3.38;91.44
43155;BME280;34212;51.018;13.586;2022-12-07T21:44:09;97255.63;;;3.40;91.06
43155;BME280;34212;51.018;13.586;2022-12-07T21:49:12;97256.69;;;3.47;92.08
43155;BME280;34212;51.018;13.586;2022-12-07T21:54:14;97250.53;;;3.56;92.48
43155;BME280;34212;51.018;13.586;2022-12-07T21:59:16;97247.00;;;3.65;92.34
43155;BME280;34212;51.018;13.586;2022-12-07T22:04:23;97247.22;;;3.72;91.93
43155;BME280;34212;51.018;13.586;2022-12-07T22:09:25;97247.75;;;3.76;92.65
43155;BME280;34212;51.018;13.586;2022-12-07T22:14:30;97258.00;;;3.79;91.83
43155;BME280;34212;51.018;13.586;2022-12-07T22:19:50;97251.72;;;3.80;91.68
43155;BME280;34212;51.018;13.586;2022-12-07T22:24:51;97250.78;;;3.81;91.83
43155;BME280;34212;51.018;13.586;2022-12-07T22:29:52;97260.03;;;3.85;92.03
43155;BME280;34212;51.018;13.586;2022-12-07T22:34:54;97255.28;;;3.88;92.01
43155;BME280;34212;51.018;13.586;2022-12-07T22:39:55;97246.41;;;3.89;92.14
43155;BME280;34212;51.018;13.586;2022-12-07T22:44:57;97237.63;;;3.89;92.28
43155;BME280;34212;51.018;13.586;2022-12-07T22:49:58;97236.16;;;3.86;92.33
43155;BME280;34212;51.018;13.586;2022-12-07T22:55:00;97241.44;;;3.86;92.01
43155;BME280;34212;51.018;13.586;2022-12-07T23:00:04;97230.63;;;3.80;91.63
43155;BME280;34212;51.018;13.586;2022-12-07T23:05:10;97226.13;;;3.72;91.88
43155;BME280;34212;51.018;13.586;2022-12-07T23:10:11;97224.31;;;3.73;91.33
43155;BME280;34212;51.018;13.586;2022-12-07T23:15:13;97229.16;;;3.77;91.70
43155;BME280;34212;51.018;13.586;2022-12-07T23:20:14;97232.31;;;3.81;91.42
43155;BME280;34212;51.018;13.586;2022-12-07T23:25:16;97220.94;;;3.80;90.88
43155;BME280;34212;51.018;13.586;2022-12-07T23:30:17;97219.63;;;3.84;91.36
43155;BME280;34212;51.018;13.586;2022-12-07T23:35:19;97227.25;;;3.87;91.43
43155;BME280;34212;51.018;13.586;2022-12-07T23:40:20;97219.84;;;3.91;90.83
43155;BME280;34212;51.018;13.586;2022-12-07T23:45:22;97215.25;;;3.93;91.00
43155;BME280;34212;51.018;13.586;2022-12-07T23:50:23;97208.81;;;3.96;91.62
43155;BME280;34212;51.018;13.586;2022-12-07T23:55:25;97203.25;;;3.99;91.72
